Time;durP1;ratioP1;P1;durP2;ratioP2;P2;SDS_P1;SDS_P2;PMS_P1;PMS_P2;Temp;Humidity;BMP_temperature;BMP_pressure;BME280_temperature;BME280_humidity;BME280_pressure;Samples;Min_cycle;Max_cycle;Signal;HPM_P1;HPM_P2
2023/01/03 00:00:30;;;;;;;2.90;2.45;;;;;;;;;;5093097;28;20078;-78
2023/01/03 00:02:56;;;;;;;3.38;2.60;;;;;;;;;;5093468;28;20458;-78
2023/01/03 00:05:22;;;;;;;3.97;2.45;;;;;;;;;;5093528;28;20032;-78
2023/01/03 00:07:47;;;;;;;4.13;2.85;;;;;;;;;;5091841;28;20039;-78
2023/01/03 00:10:13;;;;;;;5.35;3.17;;;;;;;;;;5092967;28;20036;-79
2023/01/03 00:12:38;;;;;;;9.45;3.80;;;;;;;;;;5093238;28;20459;-78
2023/01/03 00:15:04;;;;;;;5.47;2.60;;;;;;;;;;5091769;28;20028;-79
2023/01/03 00:17:29;;;;;;;4.28;2.47;;;;;;;;;;5074843;28;20028;-78
2023/01/03 00:19:55;;;;;;;2.67;2.20;;;;;;;;;;5093253;28;20089;-79
2023/01/03 00:22:20;;;;;;;3.20;2.30;;;;;;;;;;5092914;28;20394;-79
2023/01/03 00:24:47;;;;;;;3.97;2.55;;;;;;;;;;5075070;28;20107;-79
2023/01/03 00:27:14;;;;;;;4.25;2.80;;;;;;;;;;5092230;28;20050;-79
2023/01/03 00:29:40;;;;;;;7.18;2.72;;;;;;;;;;5091983;28;20470;-79
2023/01/03 00:32:06;;;;;;;5.53;3.00;;;;;;;;;;5092240;28;20039;-79
2023/01/03 00:34:32;;;;;;;5.53;2.95;;;;;;;;;;5075650;28;20032;-79
2023/01/03 00:36:57;;;;;;;5.88;2.88;;;;;;;;;;5095867;28;20020;-79
2023/01/03 00:39:23;;;;;;;4.75;2.83;;;;;;;;;;5078523;28;20355;-79
2023/01/03 00:41:48;;;;;;;4.10;2.88;;;;;;;;;;5095696;28;20028;-79
2023/01/03 00:44:14;;;;;;;3.95;2.58;;;;;;;;;;5096607;28;20386;-79
2023/01/03 00:46:39;;;;;;;3.38;2.58;;;;;;;;;;5078285;28;20081;-79
2023/01/03 00:49:05;;;;;;;5.10;2.53;;;;;;;;;;5095273;28;20505;-79
2023/01/03 00:51:33;;;;;;;3.17;2.60;;;;;;;;;;5095487;28;20034;-79
2023/01/03 00:53:59;;;;;;;4.18;2.60;;;;;;;;;;5095226;28;20024;-79
2023/01/03 00:56:27;;;;;;;5.90;2.88;;;;;;;;;;5095091;28;20052;-79
2023/01/03 00:58:53;;;;;;;3.70;2.50;;;;;;;;;;5078057;28;20453;-79
2023/01/03 01:01:21;;;;;;;3.63;2.33;;;;;;;;;;5094980;28;20095;-79
2023/01/03 01:03:54;;;;;;;3.67;2.50;;;;;;;;;;5077672;28;20542;-79
2023/01/03 01:06:25;;;;;;;3.75;2.72;;;;;;;;;;5078058;28;20020;-78
2023/01/03 01:08:52;;;;;;;2.78;2.17;;;;;;;;;;5095229;28;20383;-79
2023/01/03 01:11:18;;;;;;;3.33;2.60;;;;;;;;;;5094951;28;20055;-79
2023/01/03 01:13:45;;;;;;;3.70;2.40;;;;;;;;;;5095880;28;20028;-79
2023/01/03 01:16:13;;;;;;;3.55;2.60;;;;;;;;;;5095098;28;20023;-79
2023/01/03 01:18:39;;;;;;;3.30;2.40;;;;;;;;;;5094767;28;20035;-79
2023/01/03 01:21:11;;;;;;;3.97;2.50;;;;;;;;;;5094685;28;20032;-79
2023/01/03 01:23:38;;;;;;;4.95;2.58;;;;;;;;;;5094726;28;20136;-79
2023/01/03 01:26:04;;;;;;;4.93;2.80;;;;;;;;;;5094678;28;20031;-79
2023/01/03 01:28:30;;;;;;;3.83;2.45;;;;;;;;;;5095925;28;20032;-79
2023/01/03 01:31:03;;;;;;;4.25;2.53;;;;;;;;;;5094356;28;20161;-79
2023/01/03 01:33:30;;;;;;;6.13;2.45;;;;;;;;;;5095943;28;20039;-80
2023/01/03 01:35:56;;;;;;;2.92;2.40;;;;;;;;;;5096096;28;20032;-81
2023/01/03 01:38:21;;;;;;;8.13;2.40;;;;;;;;;;5095545;28;20046;-79
2023/01/03 01:40:47;;;;;;;3.08;2.50;;;;;;;;;;5094205;28;20032;-81
2023/01/03 01:46:14;;;;;;;3.92;2.47;;;;;;;;;;5093536;28;20047;-79
2023/01/03 01:48:39;;;;;;;3.65;2.50;;;;;;;;;;5077187;28;20038;-79
2023/01/03 01:51:07;;;;;;;4.68;2.80;;;;;;;;;;5095353;28;20132;-79
2023/01/03 01:53:33;;;;;;;4.40;2.45;;;;;;;;;;5094418;28;20032;-79
2023/01/03 01:56:03;;;;;;;2.97;2.58;;;;;;;;;;5095548;28;20170;-79
2023/01/03 01:58:33;;;;;;;2.80;2.60;;;;;;;;;;5077124;28;20364;-79
2023/01/03 02:00:58;;;;;;;3.80;2.42;;;;;;;;;;5095090;28;20036;-79
2023/01/03 02:03:24;;;;;;;2.35;2.15;;;;;;;;;;5093720;28;20078;-79
2023/01/03 02:05:52;;;;;;;3.75;2.45;;;;;;;;;;5094939;28;20054;-79
2023/01/03 02:08:17;;;;;;;5.10;2.35;;;;;;;;;;5093742;28;20035;-79
2023/01/03 02:11:05;;;;;;;5.65;2.33;;;;;;;;;;5094224;28;20032;-79
2023/01/03 02:13:39;;;;;;;2.80;2.15;;;;;;;;;;5094915;28;20012;-79
2023/01/03 02:16:26;;;;;;;3.38;2.38;;;;;;;;;;5095365;28;20028;-79
2023/01/03 02:19:07;;;;;;;2.65;2.20;;;;;;;;;;5093550;28;20115;-79
2023/01/03 02:22:07;;;;;;;3.50;2.30;;;;;;;;;;5093693;28;20101;-79
2023/01/03 02:25:05;;;;;;;3.78;2.10;;;;;;;;;;5093419;28;20035;-79
2023/01/03 02:27:57;;;;;;;3.58;2.15;;;;;;;;;;5093598;28;20066;-79
2023/01/03 02:30:35;;;;;;;2.70;2.50;;;;;;;;;;5090475;28;20043;-79
2023/01/03 02:33:25;;;;;;;3.53;2.50;;;;;;;;;;5093449;28;20020;-80
2023/01/03 02:36:18;;;;;;;3.03;2.10;;;;;;;;;;5093188;28;20052;-80
2023/01/03 02:38:47;;;;;;;2.70;2.05;;;;;;;;;;5094409;28;20435;-79
2023/01/03 02:41:28;;;;;;;2.72;2.08;;;;;;;;;;5093361;28;20032;-79
2023/01/03 02:44:07;;;;;;;2.47;2.28;;;;;;;;;;5094583;28;20093;-79
2023/01/03 02:46:46;;;;;;;3.65;2.47;;;;;;;;;;5092971;28;20486;-81
2023/01/03 02:49:25;;;;;;;2.55;2.00;;;;;;;;;;5092983;28;20441;-81
2023/01/03 02:51:57;;;;;;;2.38;2.15;;;;;;;;;;5093034;28;20020;-81
2023/01/03 02:54:47;;;;;;;3.70;2.13;;;;;;;;;;5075822;28;20387;-81
2023/01/03 02:57:19;;;;;;;2.97;2.22;;;;;;;;;;5092674;28;20016;-80
2023/01/03 02:59:48;;;;;;;5.88;2.67;;;;;;;;;;5076078;28;20030;-80
2023/01/03 03:02:15;;;;;;;2.55;2.13;;;;;;;;;;5092582;28;20101;-79
2023/01/03 03:04:41;;;;;;;3.95;2.22;;;;;;;;;;5092721;28;20024;-79
2023/01/03 03:07:10;;;;;;;2.55;2.20;;;;;;;;;;5092547;28;20031;-80
2023/01/03 03:13:11;;;;;;;5.20;2.75;;;;;;;;;;5092607;28;20436;-79
2023/01/03 03:15:07;;;;;;;4.20;2.60;;;;;;;;;;5094072;28;20031;-79
2023/01/03 03:17:33;;;;;;;6.30;2.83;;;;;;;;;;5092388;28;20039;-79
2023/01/03 03:25:48;;;;;;;4.38;2.75;;;;;;;;;;5092858;28;20035;-79
2023/01/03 03:28:35;;;;;;;3.55;2.70;;;;;;;;;;5093486;28;20494;-79
2023/01/03 03:31:21;;;;;;;4.78;2.90;;;;;;;;;;5092336;28;20035;-80
2023/01/03 03:33:56;;;;;;;3.78;2.63;;;;;;;;;;5092505;28;20032;-79
2023/01/03 03:36:35;;;;;;;5.78;2.95;;;;;;;;;;5075371;28;20059;-79
2023/01/03 03:39:00;;;;;;;3.40;2.80;;;;;;;;;;5093438;28;20034;-79
2023/01/03 03:47:42;;;;;;;4.85;2.95;;;;;;;;;;5092569;28;20391;-79
2023/01/03 03:50:22;;;;;;;5.03;3.30;;;;;;;;;;5093341;28;20391;-79
2023/01/03 03:52:50;;;;;;;3.53;2.75;;;;;;;;;;5093252;28;20031;-79
2023/01/03 03:55:19;;;;;;;4.05;2.90;;;;;;;;;;5093247;28;20027;-79
2023/01/03 03:57:50;;;;;;;4.13;3.10;;;;;;;;;;5075076;28;20027;-79
2023/01/03 04:00:20;;;;;;;4.20;2.95;;;;;;;;;;5093389;28;20016;-79
2023/01/03 04:02:46;;;;;;;4.45;2.75;;;;;;;;;;5074907;28;20117;-79
2023/01/03 04:05:16;;;;;;;3.47;2.80;;;;;;;;;;5091894;28;20483;-79
2023/01/03 04:07:41;;;;;;;3.45;2.95;;;;;;;;;;5093241;28;20024;-79
2023/01/03 04:10:07;;;;;;;3.97;2.97;;;;;;;;;;5095508;28;20148;-79
2023/01/03 04:12:33;;;;;;;4.28;2.95;;;;;;;;;;5096000;28;20111;-80
2023/01/03 04:14:58;;;;;;;3.72;2.75;;;;;;;;;;5095954;28;20123;-79
2023/01/03 04:17:23;;;;;;;3.90;3.17;;;;;;;;;;5097381;28;20040;-79
2023/01/03 04:19:49;;;;;;;4.13;2.80;;;;;;;;;;5097377;28;20417;-79
2023/01/03 04:22:14;;;;;;;4.68;2.92;;;;;;;;;;5095920;28;20027;-79
2023/01/03 04:24:40;;;;;;;4.15;2.72;;;;;;;;;;5096076;28;20078;-79
2023/01/03 04:27:05;;;;;;;5.93;3.05;;;;;;;;;;5095728;28;20085;-79
2023/01/03 04:29:30;;;;;;;3.97;3.15;;;;;;;;;;5095736;28;20035;-79
2023/01/03 04:31:56;;;;;;;5.07;3.30;;;;;;;;;;5097302;28;20126;-80
2023/01/03 04:34:21;;;;;;;3.70;3.05;;;;;;;;;;5096812;28;20028;-79
2023/01/03 04:36:46;;;;;;;4.13;3.20;;;;;;;;;;5097120;28;20020;-79
2023/01/03 04:39:12;;;;;;;3.20;2.80;;;;;;;;;;5096764;28;20115;-79
2023/01/03 04:41:37;;;;;;;3.40;3.10;;;;;;;;;;5095498;28;20024;-79
2023/01/03 04:44:06;;;;;;;4.00;2.97;;;;;;;;;;5096650;28;20040;-80
2023/01/03 04:46:33;;;;;;;4.15;3.30;;;;;;;;;;5096533;28;20180;-79
2023/01/03 04:48:59;;;;;;;4.15;3.38;;;;;;;;;;5096846;28;20103;-79
2023/01/03 04:51:25;;;;;;;4.28;3.08;;;;;;;;;;5097080;28;20035;-80
2023/01/03 04:53:50;;;;;;;4.07;3.38;;;;;;;;;;5078232;28;20024;-80
2023/01/03 04:56:16;;;;;;;7.18;3.10;;;;;;;;;;5096743;28;20024;-80
2023/01/03 04:58:41;;;;;;;4.47;3.80;;;;;;;;;;5095162;28;20479;-79
2023/01/03 05:01:07;;;;;;;5.90;3.60;;;;;;;;;;5096200;28;20113;-79
2023/01/03 05:03:33;;;;;;;5.47;3.20;;;;;;;;;;5096262;28;20107;-79
2023/01/03 05:05:59;;;;;;;3.90;3.40;;;;;;;;;;5096160;28;20032;-80
2023/01/03 05:08:25;;;;;;;4.03;3.42;;;;;;;;;;5095915;28;20081;-79
2023/01/03 05:10:52;;;;;;;4.60;3.58;;;;;;;;;;5094615;28;20467;-80
2023/01/03 05:13:17;;;;;;;4.03;3.60;;;;;;;;;;5094703;28;20031;-79
2023/01/03 05:15:42;;;;;;;4.22;3.65;;;;;;;;;;5095852;28;20032;-79
2023/01/03 05:18:08;;;;;;;4.57;3.70;;;;;;;;;;5077536;28;20063;-79
2023/01/03 05:26:06;;;;;;;5.05;3.55;;;;;;;;;;5095731;28;20202;-80
2023/01/03 05:28:32;;;;;;;4.00;3.60;;;;;;;;;;5077243;28;20081;-79
2023/01/03 05:30:57;;;;;;;5.80;4.20;;;;;;;;;;5077131;28;20421;-79
2023/01/03 05:33:23;;;;;;;4.03;3.50;;;;;;;;;;5094048;28;20035;-79
2023/01/03 05:35:49;;;;;;;4.10;3.70;;;;;;;;;;5095418;28;20475;-79
2023/01/03 05:38:15;;;;;;;3.70;3.30;;;;;;;;;;5077278;28;20032;-79
2023/01/03 05:40:40;;;;;;;3.90;3.50;;;;;;;;;;5093906;28;20039;-79
2023/01/03 05:43:06;;;;;;;4.70;3.80;;;;;;;;;;5095327;28;20032;-79
2023/01/03 05:45:34;;;;;;;6.30;4.20;;;;;;;;;;5093919;28;20223;-79
2023/01/03 05:47:59;;;;;;;4.28;3.70;;;;;;;;;;5093674;28;20451;-79
2023/01/03 05:50:25;;;;;;;4.25;3.67;;;;;;;;;;5095365;28;20034;-79
2023/01/03 05:52:50;;;;;;;4.38;3.42;;;;;;;;;;5094767;28;20028;-79
2023/01/03 05:55:16;;;;;;;4.97;3.97;;;;;;;;;;5093581;28;20085;-80
2023/01/03 05:57:41;;;;;;;4.70;3.30;;;;;;;;;;5094978;28;20020;-79
2023/01/03 06:00:07;;;;;;;4.90;3.90;;;;;;;;;;5093697;28;20492;-82
2023/01/03 06:02:33;;;;;;;4.68;3.83;;;;;;;;;;5093538;28;20056;-80
2023/01/03 06:04:58;;;;;;;5.47;3.53;;;;;;;;;;5095418;28;20036;-81
2023/01/03 06:07:23;;;;;;;8.90;4.60;;;;;;;;;;5076627;28;20029;-81
2023/01/03 06:09:49;;;;;;;11.98;5.78;;;;;;;;;;5093819;28;20146;-82
2023/01/03 06:12:14;;;;;;;9.30;4.47;;;;;;;;;;5093974;28;20039;-78
2023/01/03 06:14:39;;;;;;;15.00;4.95;;;;;;;;;;5094020;28;20407;-79
2023/01/03 06:19:49;;;;;;;25.13;4.70;;;;;;;;;;5093682;28;20394;-80
2023/01/03 06:22:14;;;;;;;10.20;4.28;;;;;;;;;;5108901;28;20032;-80
2023/01/03 06:24:39;;;;;;;11.35;4.15;;;;;;;;;;5084512;28;20031;-80
2023/01/03 06:27:05;;;;;;;10.43;4.68;;;;;;;;;;5113277;28;20023;-81
2023/01/03 06:29:30;;;;;;;25.15;6.18;;;;;;;;;;5114979;28;20083;-79
2023/01/03 06:31:56;;;;;;;9.30;5.10;;;;;;;;;;5114890;28;20042;-80
2023/01/03 06:34:21;;;;;;;8.18;4.68;;;;;;;;;;5102632;28;20024;-81
2023/01/03 06:36:47;;;;;;;11.73;4.70;;;;;;;;;;5097724;28;20016;-80
2023/01/03 06:39:12;;;;;;;9.10;4.88;;;;;;;;;;5093225;28;20357;-81
2023/01/03 06:41:37;;;;;;;8.50;4.45;;;;;;;;;;5094358;28;20028;-81
2023/01/03 06:44:03;;;;;;;12.63;5.43;;;;;;;;;;5093880;28;20393;-81
2023/01/03 06:54:43;;;;;;;8.80;4.85;;;;;;;;;;5093071;28;20173;-81
2023/01/03 06:57:09;;;;;;;10.20;4.85;;;;;;;;;;5092789;28;20173;-81
2023/01/03 06:59:34;;;;;;;10.73;4.88;;;;;;;;;;5094019;28;20031;-82
2023/01/03 07:01:59;;;;;;;12.52;5.20;;;;;;;;;;5094132;28;20402;-81
2023/01/03 07:04:25;;;;;;;7.30;4.30;;;;;;;;;;5094360;28;20032;-79
2023/01/03 07:06:51;;;;;;;12.70;4.65;;;;;;;;;;5092936;28;20031;-79
2023/01/03 07:09:17;;;;;;;10.77;5.30;;;;;;;;;;5094038;28;20047;-78
2023/01/03 07:11:42;;;;;;;6.63;4.47;;;;;;;;;;5093778;28;20510;-80
2023/01/03 07:14:08;;;;;;;7.25;4.22;;;;;;;;;;5092572;28;20076;-81
2023/01/03 07:16:36;;;;;;;8.43;4.40;;;;;;;;;;5093816;28;20024;-80
2023/01/03 07:19:05;;;;;;;7.45;4.40;;;;;;;;;;5092782;28;20024;-80
2023/01/03 07:21:32;;;;;;;4.90;3.97;;;;;;;;;;5093249;28;20489;-81
2023/01/03 07:24:00;;;;;;;5.68;3.88;;;;;;;;;;5092968;28;20024;-80
2023/01/03 07:26:26;;;;;;;5.63;3.60;;;;;;;;;;5075758;28;20030;-79
2023/01/03 07:28:52;;;;;;;5.30;3.50;;;;;;;;;;5092786;28;20032;-84
2023/01/03 07:31:18;;;;;;;11.95;4.15;;;;;;;;;;5096835;28;20038;-83
2023/01/03 07:33:44;;;;;;;6.25;4.32;;;;;;;;;;5100804;28;20030;-84
2023/01/03 07:36:10;;;;;;;9.43;3.67;;;;;;;;;;5114728;28;20419;-84
2023/01/03 07:38:36;;;;;;;6.32;3.88;;;;;;;;;;5114823;27;20494;-84
2023/01/03 07:41:03;;;;;;;6.43;4.18;;;;;;;;;;5097708;28;20470;-84
2023/01/03 07:43:37;;;;;;;6.70;3.80;;;;;;;;;;5097993;28;20028;-85
2023/01/03 07:46:12;;;;;;;8.25;4.60;;;;;;;;;;5113226;28;20027;-84
2023/01/03 07:48:38;;;;;;;13.05;3.88;;;;;;;;;;5113223;28;20023;-82
2023/01/03 07:51:04;;;;;;;12.25;3.78;;;;;;;;;;5112258;28;20023;-82
2023/01/03 07:53:30;;;;;;;5.03;3.35;;;;;;;;;;5113114;28;20043;-84
2023/01/03 07:56:11;;;;;;;5.32;3.55;;;;;;;;;;5107220;28;20020;-82
2023/01/03 07:58:37;;;;;;;5.00;3.40;;;;;;;;;;5093409;28;20024;-81
2023/01/03 08:01:07;;;;;;;6.28;3.78;;;;;;;;;;5093291;28;20043;-81
2023/01/03 08:03:33;;;;;;;6.05;3.60;;;;;;;;;;5096415;28;20055;-81
2023/01/03 08:06:00;;;;;;;6.68;3.53;;;;;;;;;;5113779;28;20101;-79
2023/01/03 08:08:26;;;;;;;7.28;3.47;;;;;;;;;;5111736;28;20031;-79
2023/01/03 08:13:35;;;;;;;4.97;3.30;;;;;;;;;;5097812;28;20096;-81
2023/01/03 08:16:00;;;;;;;4.32;3.25;;;;;;;;;;5112236;28;20426;-81
2023/01/03 08:18:26;;;;;;;4.40;3.10;;;;;;;;;;5113199;28;20032;-84
2023/01/03 08:20:57;;;;;;;4.43;3.35;;;;;;;;;;5123176;28;20043;-81
2023/01/03 08:23:29;;;;;;;5.57;3.10;;;;;;;;;;5101571;28;20521;-82
2023/01/03 08:26:08;;;;;;;6.28;3.33;;;;;;;;;;5099140;28;20128;-80
2023/01/03 08:28:40;;;;;;;5.97;2.78;;;;;;;;;;5117037;28;20535;-81
2023/01/03 08:31:11;;;;;;;4.38;3.10;;;;;;;;;;5115743;28;20031;-81
2023/01/03 08:33:56;;;;;;;9.00;3.50;;;;;;;;;;5116695;28;20027;-82
2023/01/03 08:36:26;;;;;;;4.40;3.10;;;;;;;;;;5133570;28;20068;-82
2023/01/03 08:38:58;;;;;;;4.07;3.00;;;;;;;;;;5117162;28;20083;-82
2023/01/03 08:41:31;;;;;;;9.73;2.90;;;;;;;;;;5134206;28;20080;-82
2023/01/03 08:44:05;;;;;;;7.97;2.63;;;;;;;;;;5118212;28;20058;-81
2023/01/03 08:46:44;;;;;;;3.63;2.63;;;;;;;;;;5134446;28;20104;-81
2023/01/03 08:49:16;;;;;;;3.03;2.50;;;;;;;;;;5117273;28;20031;-80
2023/01/03 08:51:47;;;;;;;5.90;2.75;;;;;;;;;;5133781;28;20024;-81
2023/01/03 08:54:13;;;;;;;5.38;2.97;;;;;;;;;;5114195;28;20028;-78
2023/01/03 08:56:42;;;;;;;3.65;2.47;;;;;;;;;;5116205;28;20027;-76
2023/01/03 08:59:08;;;;;;;3.65;2.53;;;;;;;;;;5117099;28;20086;-80
2023/01/03 09:01:43;;;;;;;6.60;3.30;;;;;;;;;;5108927;28;20055;-80
2023/01/03 09:04:20;;;;;;;3.38;2.50;;;;;;;;;;5127872;28;20107;-76
2023/01/03 09:06:49;;;;;;;3.13;2.50;;;;;;;;;;5132831;28;20370;-80
2023/01/03 09:09:15;;;;;;;4.72;2.50;;;;;;;;;;5130898;28;20051;-78
2023/01/03 09:11:40;;;;;;;3.50;2.40;;;;;;;;;;5131774;28;20057;-78
2023/01/03 09:14:06;;;;;;;3.45;2.53;;;;;;;;;;5114061;28;20023;-79
2023/01/03 09:16:35;;;;;;;3.05;2.20;;;;;;;;;;5135079;28;20087;-79
2023/01/03 09:19:04;;;;;;;3.90;2.45;;;;;;;;;;5136780;28;20120;-79
2023/01/03 09:21:30;;;;;;;16.33;2.78;;;;;;;;;;5116026;28;20050;-78
2023/01/03 09:23:58;;;;;;;5.40;2.50;;;;;;;;;;5118131;28;20043;-86
2023/01/03 09:26:37;;;;;;;6.07;2.67;;;;;;;;;;5119210;28;20031;-85
2023/01/03 09:29:05;;;;;;;3.28;2.17;;;;;;;;;;5134878;28;20070;-82
2023/01/03 09:31:35;;;;;;;3.72;2.30;;;;;;;;;;5098122;28;20028;-78
2023/01/03 09:34:06;;;;;;;4.60;2.30;;;;;;;;;;5081818;28;20040;-80
2023/01/03 09:36:33;;;;;;;4.40;2.15;;;;;;;;;;5100841;28;20079;-80
2023/01/03 09:39:04;;;;;;;4.05;2.55;;;;;;;;;;5116967;28;20024;-82
2023/01/03 09:41:38;;;;;;;2.90;2.20;;;;;;;;;;5101505;28;20023;-79
2023/01/03 09:44:07;;;;;;;3.20;2.17;;;;;;;;;;5101977;28;20032;-81
2023/01/03 09:46:36;;;;;;;3.10;2.30;;;;;;;;;;5100208;28;20024;-82
2023/01/03 09:49:19;;;;;;;2.22;1.80;;;;;;;;;;5117253;28;20020;-83
2023/01/03 10:03:43;;;;;;;5.40;2.45;;;;;;;;;;5103845;28;20093;-81
2023/01/03 10:06:14;;;;;;;9.00;2.20;;;;;;;;;;5101088;28;20008;-77
2023/01/03 10:09:13;;;;;;;6.65;2.40;;;;;;;;;;5174646;22;20071;-79
2023/01/03 10:12:11;;;;;;;5.68;2.15;;;;;;;;;;5089853;28;20031;-79
2023/01/03 10:18:44;;;;;;;4.47;2.00;;;;;;;;;;5112361;28;20064;-79
2023/01/03 10:21:50;;;;;;;5.32;2.20;;;;;;;;;;5099059;28;20061;-76
2023/01/03 10:24:32;;;;;;;14.32;2.78;;;;;;;;;;5090826;28;20036;-84
2023/01/03 10:27:34;;;;;;;6.18;3.00;;;;;;;;;;5083850;28;20084;-83
2023/01/03 10:31:03;;;;;;;4.40;2.20;;;;;;;;;;5101036;28;20038;-84
2023/01/03 10:33:56;;;;;;;8.20;2.40;;;;;;;;;;5021183;28;20193;-85
2023/01/03 10:37:11;;;;;;;4.32;2.50;;;;;;;;;;5050984;28;20029;-86
2023/01/03 10:39:41;;;;;;;3.90;2.30;;;;;;;;;;5035318;28;20037;-84
2023/01/03 10:42:06;;;;;;;4.72;2.38;;;;;;;;;;5051348;28;20028;-83
2023/01/03 10:44:37;;;;;;;5.05;3.10;;;;;;;;;;5063377;28;20096;-83
2023/01/03 10:47:13;;;;;;;5.50;2.55;;;;;;;;;;5063005;28;20052;-80
2023/01/03 10:49:44;;;;;;;10.38;2.63;;;;;;;;;;5056801;28;20033;-80
2023/01/03 10:52:23;;;;;;;6.35;2.50;;;;;;;;;;5038759;28;20036;-81
2023/01/03 10:55:14;;;;;;;5.25;2.60;;;;;;;;;;5056890;28;20067;-82
2023/01/03 10:57:55;;;;;;;4.43;2.50;;;;;;;;;;5037820;28;20064;-80
2023/01/03 11:00:42;;;;;;;4.70;2.50;;;;;;;;;;5060337;28;20032;-79
2023/01/03 11:03:11;;;;;;;7.97;2.80;;;;;;;;;;5051632;28;20088;-77
2023/01/03 11:08:47;;;;;;;6.72;2.40;;;;;;;;;;5097138;22;20074;-78
2023/01/03 11:11:35;;;;;;;3.45;2.50;;;;;;;;;;5062168;28;20037;-79
2023/01/03 11:14:25;;;;;;;8.70;2.63;;;;;;;;;;5060707;28;20016;-75
2023/01/03 11:19:56;;;;;;;4.65;2.60;;;;;;;;;;5079452;28;20044;-76
2023/01/03 11:22:41;;;;;;;7.32;2.60;;;;;;;;;;5043632;28;20040;-77
2023/01/03 11:25:50;;;;;;;4.55;2.60;;;;;;;;;;5060106;28;20043;-78
2023/01/03 11:28:58;;;;;;;7.78;2.13;;;;;;;;;;5060010;28;20029;-77
2023/01/03 11:31:38;;;;;;;4.97;2.40;;;;;;;;;;5076570;28;20106;-77
2023/01/03 11:34:30;;;;;;;6.90;2.63;;;;;;;;;;5077605;28;20025;-76
2023/01/03 11:37:17;;;;;;;6.22;2.40;;;;;;;;;;5077397;28;20383;-77
2023/01/03 11:39:48;;;;;;;4.70;2.50;;;;;;;;;;5076137;28;20046;-77
2023/01/03 11:42:31;;;;;;;4.03;2.10;;;;;;;;;;5076569;28;20035;-78
2023/01/03 11:45:05;;;;;;;4.05;2.72;;;;;;;;;;5046686;28;20036;-79
2023/01/03 11:47:36;;;;;;;3.88;2.47;;;;;;;;;;5054774;28;20032;-79
2023/01/03 11:50:27;;;;;;;8.13;2.55;;;;;;;;;;5054617;28;20032;-79
2023/01/03 11:53:10;;;;;;;3.70;2.17;;;;;;;;;;5038233;28;20127;-80
2023/01/03 11:56:07;;;;;;;4.25;2.25;;;;;;;;;;5054711;28;20032;-79
2023/01/03 11:58:52;;;;;;;3.17;2.15;;;;;;;;;;5072724;28;20027;-79
2023/01/03 12:01:26;;;;;;;2.80;2.22;;;;;;;;;;5072729;28;20351;-79
2023/01/03 12:04:12;;;;;;;2.63;2.20;;;;;;;;;;5054651;28;20032;-79
2023/01/03 12:06:50;;;;;;;3.05;2.15;;;;;;;;;;5072634;28;20422;-79
2023/01/03 12:09:26;;;;;;;3.85;2.30;;;;;;;;;;5067057;28;20087;-79
2023/01/03 12:12:30;;;;;;;3.78;2.20;;;;;;;;;;5052528;28;20029;-82
2023/01/03 12:15:16;;;;;;;7.43;2.60;;;;;;;;;;4996599;28;20129;-79
2023/01/03 12:17:50;;;;;;;3.47;2.40;;;;;;;;;;4996782;28;20065;-79
2023/01/03 12:20:22;;;;;;;3.25;2.50;;;;;;;;;;5023522;28;20518;-79
2023/01/03 12:23:00;;;;;;;5.82;2.47;;;;;;;;;;5053815;28;20029;-79
2023/01/03 12:25:29;;;;;;;3.45;2.22;;;;;;;;;;5053401;28;20031;-80
2023/01/03 12:28:02;;;;;;;4.22;2.17;;;;;;;;;;5052485;28;20036;-78
2023/01/03 12:30:47;;;;;;;3.73;2.70;;;;;;;;;;5037544;28;20017;-79
2023/01/03 12:33:30;;;;;;;5.20;2.47;;;;;;;;;;5059408;28;20021;-79
2023/01/03 12:36:14;;;;;;;2.53;2.10;;;;;;;;;;5057592;28;20029;-79
2023/01/03 12:38:54;;;;;;;6.88;2.80;;;;;;;;;;5046019;28;20033;-78
2023/01/03 12:41:30;;;;;;;4.55;2.25;;;;;;;;;;5050770;28;20032;-79
2023/01/03 12:44:17;;;;;;;3.20;2.25;;;;;;;;;;5053363;28;20024;-79
2023/01/03 12:46:47;;;;;;;4.25;2.33;;;;;;;;;;5057635;28;20394;-79
2023/01/03 12:49:40;;;;;;;4.85;2.30;;;;;;;;;;5048514;28;20017;-83
2023/01/03 12:52:09;;;;;;;5.10;2.40;;;;;;;;;;5047746;28;20028;-79
2023/01/03 12:54:46;;;;;;;3.67;2.30;;;;;;;;;;5041420;28;20035;-79
2023/01/03 12:57:29;;;;;;;3.13;2.58;;;;;;;;;;5064295;28;20021;-79
2023/01/03 13:00:25;;;;;;;14.68;2.55;;;;;;;;;;5064508;28;20444;-79
2023/01/03 13:03:16;;;;;;;5.03;2.30;;;;;;;;;;5043711;28;20107;-80
2023/01/03 13:05:50;;;;;;;5.93;2.30;;;;;;;;;;5019555;28;20033;-80
2023/01/03 13:08:18;;;;;;;4.45;2.42;;;;;;;;;;5034070;28;20054;-80
2023/01/03 13:10:48;;;;;;;4.85;2.30;;;;;;;;;;5057486;28;20028;-79
2023/01/03 13:13:16;;;;;;;3.92;2.50;;;;;;;;;;5058088;28;20032;-79
2023/01/03 13:15:42;;;;;;;6.10;2.42;;;;;;;;;;5058109;28;20516;-80
2023/01/03 13:18:29;;;;;;;3.75;2.40;;;;;;;;;;5057679;28;20115;-79
2023/01/03 13:20:54;;;;;;;5.50;2.75;;;;;;;;;;5042990;28;20032;-80
2023/01/03 13:23:20;;;;;;;5.95;2.33;;;;;;;;;;5041637;28;20050;-79
2023/01/03 13:26:05;;;;;;;3.58;2.15;;;;;;;;;;5056776;28;20039;-80
2023/01/03 13:28:35;;;;;;;3.72;2.10;;;;;;;;;;5056488;28;20494;-80
2023/01/03 13:31:13;;;;;;;3.20;2.20;;;;;;;;;;5044707;28;20023;-79
2023/01/03 13:33:47;;;;;;;6.50;2.25;;;;;;;;;;5078402;28;20023;-80
2023/01/03 13:36:14;;;;;;;11.18;2.20;;;;;;;;;;5077995;28;20495;-81
2023/01/03 13:38:40;;;;;;;5.32;2.15;;;;;;;;;;5077587;28;20129;-79
2023/01/03 13:41:30;;;;;;;4.70;2.28;;;;;;;;;;5077690;28;20036;-80
2023/01/03 13:44:14;;;;;;;5.45;2.20;;;;;;;;;;5076513;28;20471;-80
2023/01/03 13:46:40;;;;;;;7.88;2.38;;;;;;;;;;5078446;28;20134;-79
2023/01/03 13:49:06;;;;;;;3.75;2.00;;;;;;;;;;5061104;28;20033;-79
2023/01/03 13:51:32;;;;;;;6.63;2.17;;;;;;;;;;5078114;28;20055;-80
2023/01/03 13:54:21;;;;;;;4.30;2.05;;;;;;;;;;5077716;28;20059;-79
2023/01/03 13:56:46;;;;;;;6.72;2.15;;;;;;;;;;5075060;28;20024;-79
2023/01/03 13:59:18;;;;;;;5.72;2.00;;;;;;;;;;5095353;28;20382;-79
2023/01/03 14:02:05;;;;;;;4.82;1.95;;;;;;;;;;5077217;28;20056;-80
2023/01/03 14:04:52;;;;;;;5.13;2.00;;;;;;;;;;5095442;28;20031;-79
2023/01/03 14:07:38;;;;;;;11.10;2.45;;;;;;;;;;5095610;28;20423;-80
2023/01/03 14:10:31;;;;;;;3.75;2.10;;;;;;;;;;5094864;28;20127;-80
2023/01/03 14:12:57;;;;;;;3.65;1.90;;;;;;;;;;5076745;28;20069;-79
2023/01/03 14:15:24;;;;;;;3.80;2.20;;;;;;;;;;5095565;28;20020;-79
2023/01/03 14:17:57;;;;;;;6.72;2.08;;;;;;;;;;5076877;28;20020;-80
2023/01/03 14:20:26;;;;;;;6.28;2.30;;;;;;;;;;5077067;28;20082;-79
2023/01/03 14:22:52;;;;;;;4.03;2.03;;;;;;;;;;5077997;28;20024;-79
2023/01/03 14:25:38;;;;;;;4.00;2.00;;;;;;;;;;5060889;28;20474;-79
2023/01/03 14:28:15;;;;;;;9.45;2.15;;;;;;;;;;5076939;28;20027;-80
2023/01/03 14:30:41;;;;;;;4.15;1.98;;;;;;;;;;5062204;28;20124;-80
2023/01/03 14:33:17;;;;;;;5.22;1.83;;;;;;;;;;5094796;28;20055;-80
2023/01/03 14:35:43;;;;;;;3.72;2.15;;;;;;;;;;5076685;28;20028;-80
2023/01/03 14:38:28;;;;;;;3.47;2.10;;;;;;;;;;5077516;28;20115;-79
2023/01/03 14:40:55;;;;;;;2.45;1.73;;;;;;;;;;5076938;28;20035;-79
2023/01/03 14:43:21;;;;;;;3.83;2.17;;;;;;;;;;5077760;28;20090;-80
2023/01/03 14:46:00;;;;;;;5.65;2.05;;;;;;;;;;5058225;28;20028;-79
2023/01/03 14:48:25;;;;;;;4.15;2.20;;;;;;;;;;5072382;28;20020;-81
2023/01/03 14:50:52;;;;;;;4.85;2.35;;;;;;;;;;5067344;28;20040;-79
2023/01/03 14:53:17;;;;;;;5.85;1.98;;;;;;;;;;5095345;28;20133;-78
2023/01/03 14:55:50;;;;;;;7.32;2.03;;;;;;;;;;5074630;28;20187;-78
2023/01/03 14:58:29;;;;;;;3.43;2.10;;;;;;;;;;5090785;28;20030;-79
2023/01/03 15:00:55;;;;;;;4.05;1.98;;;;;;;;;;5095358;28;20020;-77
2023/01/03 15:03:20;;;;;;;3.90;1.95;;;;;;;;;;5077651;28;20050;-79
2023/01/03 15:05:51;;;;;;;3.40;1.90;;;;;;;;;;5096371;28;20023;-78
2023/01/03 15:08:23;;;;;;;3.88;1.90;;;;;;;;;;5085374;28;20056;-78
2023/01/03 15:10:54;;;;;;;3.75;2.00;;;;;;;;;;5096917;28;20348;-79
2023/01/03 15:13:32;;;;;;;5.45;1.90;;;;;;;;;;5110717;28;20060;-81
2023/01/03 15:15:59;;;;;;;3.03;1.90;;;;;;;;;;5056382;28;20547;-79
2023/01/03 15:18:31;;;;;;;3.60;1.80;;;;;;;;;;5076918;28;20020;-78
2023/01/03 15:20:58;;;;;;;4.07;1.90;;;;;;;;;;5072812;28;20039;-79
2023/01/03 15:23:35;;;;;;;2.78;1.77;;;;;;;;;;5060811;28;20058;-82
2023/01/03 15:26:00;;;;;;;5.55;1.80;;;;;;;;;;5078433;28;20064;-84
2023/01/03 15:28:27;;;;;;;7.65;1.90;;;;;;;;;;5088657;28;20104;-82
2023/01/03 15:30:55;;;;;;;5.00;1.92;;;;;;;;;;5097523;28;20046;-80
2023/01/03 15:33:32;;;;;;;3.15;1.80;;;;;;;;;;5097685;28;20019;-79
2023/01/03 15:36:20;;;;;;;3.45;2.10;;;;;;;;;;5114718;28;20151;-81
2023/01/03 15:38:46;;;;;;;2.90;1.85;;;;;;;;;;5115081;28;20051;-81
2023/01/03 15:43:18;;;;;;;3.75;1.80;;;;;;;;;;5097773;28;20039;-81
2023/01/03 15:44:03;;;;;;;3.97;2.10;;;;;;;;;;5115345;28;20050;-82
2023/01/03 15:46:28;;;;;;;4.43;2.08;;;;;;;;;;5094692;28;20044;-80
2023/01/03 15:48:55;;;;;;;2.08;1.60;;;;;;;;;;5090764;28;20054;-80
2023/01/03 15:51:21;;;;;;;3.17;1.60;;;;;;;;;;5067595;28;20111;-80
2023/01/03 15:53:46;;;;;;;2.22;1.48;;;;;;;;;;5058386;28;20079;-79
2023/01/03 15:56:18;;;;;;;3.80;1.65;;;;;;;;;;5072095;28;20040;-80
2023/01/03 15:58:43;;;;;;;5.53;1.70;;;;;;;;;;5076866;28;20027;-80
2023/01/03 16:01:09;;;;;;;1.98;1.48;;;;;;;;;;5075595;28;20455;-79
2023/01/03 16:03:35;;;;;;;3.55;1.65;;;;;;;;;;5096432;28;20442;-80
2023/01/03 16:06:01;;;;;;;3.25;1.50;;;;;;;;;;5081939;28;20060;-81
2023/01/03 16:08:34;;;;;;;3.78;1.60;;;;;;;;;;5072377;28;20044;-79
2023/01/03 16:11:02;;;;;;;4.97;1.60;;;;;;;;;;5056227;28;20029;-81